Webcam Zuidwest  Webcam Zuidwest


Onweer radar more information blitzortung!


Regen radar more information rain snow radar


Weerstation Alkmaar Centrum

Weerstation Luyksgestel

Website Noardburgum


U vindt ons ook hier:

Het Weer Aktueel

UK Metoffice

European Weather Network

Weather Underground

AWEKAS

Citizen Weather Observer Program (CWOP)

HAMweather, WeatherForYou, PWS Weather



Het weer levert geen direct gevaar op.    Er zijn geen waarschuwingen afgegeven.

METAR rapporten vliegvelden


Warning: A non-numeric value encountered in /home/tjeerqo264/domains/wsnoordbergum.nl/public_html/weather2/metar/wsMetarTxt.php on line 609
   
EHLW - Leeuwarden Rnlaf, Netherlands
Afstand tot: W 17 km
Gewijzigd: 08-05-2021 17:35
Regen, Bewolking  
Regen, Bewolking  
   Wind: ZZO 29.6 km/h
Wind: ZZO 29.6 km/h
Temperatuur: 9°C
Voelt als: 6°C
Dauwpunt: 8°C
Vochtigheid: 94%
Barometer: 1007 hPa
Bewolking: Bewolking
Zicht: 6 km
Bewolking: Licht bewolkt 1000 ft,
Grotendeels bewolkt 1200 ft,
Gedeeltelijk bewolkt 1500 ft,
Bewolking 1600 ft
EHLW 081535Z AUTO 15016KT 120V190 6000 RA FEW010 BKN012 SCT015CB OVC016 09/08 Q1007 GRN
EHMA - Awg-1 Sea, Netherlands
Afstand tot: N 31 km
Gewijzigd: 08-05-2021 17:25
Regenbuien, Regen, Bewolking  
Regenbuien, Regen, Bewolking  
   Wind: ZO 50 km/h
Wind: ZO 50 km/h
Temperatuur: 9°C
Voelt als: 4°C
Dauwpunt: 7°C
Vochtigheid: 87%
Barometer: 1007 hPa
Bewolking: Bewolking
Zicht: 4 km
Bewolking: Gedeeltelijk bewolkt 2600 ft,
Grotendeels bewolkt 3000 ft,
Bewolking 3500 ft
EHMA 081525Z AUTO 13027KT 4300 SHRA SCT026 BKN030 OVC035 09/07 Q1007
EHGG - Groningen/Eelde, Netherlands
Afstand tot: OZO 40 km
Gewijzigd: 08-05-2021 17:25
Light Showers, Regen, Bewolking  
Light Showers, Regen, Bewolking  
   Wind: ZZO 22.2 km/h
Wind: ZZO 22.2 km/h
Temperatuur: 9°C
Voelt als: 6°C
Dauwpunt: 7°C
Vochtigheid: 87%
Barometer: 1009 hPa
Bewolking: Bewolking
Zicht: meer dan 10 km
Bewolking: Licht bewolkt 1500 ft,
Gedeeltelijk bewolkt 3200 ft,
Bewolking 3600 ft
EHGG 081525Z AUTO 15012KT 110V190 9999 -SHRA FEW015CB SCT032 OVC036 09/07 Q1009 NOSIG
EHVL - Vlieland Island, Netherlands
Afstand tot: W 72 km
Gewijzigd: 08-05-2021 17:43
Wat regen mogelijk, Grotendeels bewolkt  
Wat regen mogelijk, Grotendeels bewolkt  
   Wind: ZZO 51.9 km/h
Wind: ZZO 51.9 km/h
Temperatuur: 9°C
Voelt als: 4°C
Dauwpunt: 9°C
Vochtigheid: 100%
Barometer: 1004 hPa
Bewolking: Grotendeels bewolkt
Zicht: 4 km
Bewolking: Licht bewolkt 500 ft,
Grotendeels bewolkt 600 ft,
Grotendeels bewolkt 700 ft,
Gedeeltelijk bewolkt 1500 ft
EHVL 081543Z AUTO 16028KT 4400 -RA FEW005 BKN006 BKN007 SCT015CB 09/09 Q1004 YLO
EHMG - L9-Ff-1 Sea, Netherlands
Afstand tot: WNW 81 km
Gewijzigd: 08-05-2021 17:25
Grotendeels bewolkt  
Grotendeels bewolkt  
   Wind: ZZO 63 km/h
Wind: ZZO 63 km/h
Temperatuur: 9°C
Voelt als: 3°C
Dauwpunt: 7°C
Vochtigheid: 87%
Barometer: 1006 hPa
Bewolking: Grotendeels bewolkt
Bewolking: Licht bewolkt 700 ft,
Gedeeltelijk bewolkt 800 ft,
Grotendeels bewolkt 1000 ft
EHMG 081525Z AUTO 16034KT //// // FEW007 SCT008 BKN010 09/07 Q1006 RE//
EHKD - De Kooy (navy), Netherlands
Afstand tot: WZW 89 km
Gewijzigd: 08-05-2021 17:42
Wat regen mogelijk, Grotendeels bewolkt  
Wat regen mogelijk, Grotendeels bewolkt  
   Wind: ZZO 27.8 km/h
Wind: ZZO 27.8 km/h
Temperatuur: 10°C
Voelt als: 7°C
Dauwpunt: 9°C
Vochtigheid: 94%
Barometer: 1005 hPa
Bewolking: Grotendeels bewolkt
Zicht: 5 km
Bewolking: Licht bewolkt 400 ft,
Gedeeltelijk bewolkt 600 ft,
Grotendeels bewolkt 900 ft,
Licht bewolkt 1500 ft
EHKD 081542Z AUTO 16015KT 120V190 5000 -RA FEW004 SCT006 BKN009 FEW015CB 10/09 Q1005 YLO TEMPO 4500 RA SCT007 SCT010 BKN023

Script ontwikkeld door  Saratoga-weather.org Aangepast voor de template door  Weerstation Leuven

Apparatuur in gebruik:

Weerstation
Davis Vantage pro 2

Weerprogramma
Meteobridge

Weercomputer
Meteobridge Nano SD

Webleverancier
Versio

Davis Vantage pro 2

Meteobridge

Meteobridge Nano SD

Versio